createdAt,value
2023-04-06T05:03:36.943Z,82.90
2023-04-06T05:08:41.071Z,83.60
2023-04-06T05:13:45.216Z,84.00
2023-04-06T05:18:51.467Z,84.20
2023-04-06T05:23:56.696Z,84.30
2023-04-06T05:29:01.173Z,84.50
2023-04-06T05:34:10.548Z,84.70
2023-04-06T05:39:15.429Z,84.60
2023-04-06T05:44:19.506Z,84.80
2023-04-06T05:49:25.213Z,84.60
2023-04-06T05:54:30.431Z,84.00
2023-04-06T06:04:41.503Z,84.00
2023-04-06T06:09:45.390Z,84.90
2023-04-06T06:14:52.165Z,85.10
2023-04-06T06:19:57.662Z,85.20
2023-04-06T06:30:09.231Z,84.00
2023-04-06T06:35:16.610Z,84.30
2023-04-06T06:40:23.079Z,85.40
2023-04-06T06:50:32.794Z,84.10
2023-04-06T07:00:40.695Z,84.10
2023-04-06T07:05:54.312Z,85.20
2023-04-06T07:10:58.489Z,85.80
2023-04-06T07:16:02.172Z,86.20
2023-04-06T07:21:07.914Z,86.30
2023-04-06T07:36:22.686Z,85.70
2023-04-06T07:41:26.620Z,86.40
2023-04-06T07:46:30.915Z,86.30
2023-04-06T07:51:38.195Z,86.40
2023-04-06T08:01:45.980Z,86.30
2023-04-06T08:06:51.064Z,86.30
2023-04-06T08:22:04.343Z,86.40
2023-04-06T08:37:17.838Z,85.40
2023-04-06T08:42:23.541Z,86.00
2023-04-06T08:52:34.689Z,85.10
2023-04-06T08:57:38.934Z,84.80
2023-04-06T09:02:45.833Z,85.30
2023-04-06T09:07:50.957Z,85.10
2023-04-06T09:13:05.399Z,86.00
2023-04-06T09:18:09.580Z,86.50
2023-04-06T09:23:21.492Z,85.70
2023-04-06T09:38:35.384Z,87.70
2023-04-06T09:53:52.693Z,88.00
2023-04-06T09:59:03.856Z,88.40
2023-04-06T10:04:21.394Z,89.20
2023-04-06T10:09:29.039Z,89.40
2023-04-06T10:14:34.539Z,89.90
2023-04-06T10:19:52.170Z,90.10
2023-04-06T10:24:57.270Z,90.20
2023-04-06T10:30:04.499Z,90.30
2023-04-06T10:35:12.554Z,90.30
2023-04-06T10:40:24.556Z,90.10
2023-04-06T10:45:33.345Z,90.60
2023-04-06T10:55:47.121Z,90.90
2023-04-06T11:00:51.902Z,91.50
2023-04-06T11:05:55.703Z,91.80
2023-04-06T11:11:12.088Z,92.20
2023-04-06T11:16:17.101Z,92.10
2023-04-06T11:26:26.314Z,91.10
2023-04-06T11:31:30.133Z,91.30
2023-04-06T11:36:34.077Z,90.80
2023-04-06T11:41:39.457Z,90.60
2023-04-06T11:51:48.758Z,91.60
2023-04-06T11:56:53.839Z,92.60
2023-04-06T12:07:01.704Z,91.80
2023-04-06T12:12:06.938Z,93.40
2023-04-06T12:17:10.855Z,93.60
2023-04-06T12:27:20.084Z,92.80
2023-04-06T12:32:23.987Z,93.00
2023-04-06T12:37:28.939Z,92.90
2023-04-06T12:42:34.210Z,92.80
2023-04-06T12:47:38.831Z,92.40
2023-04-06T12:52:42.572Z,92.00
2023-04-06T12:57:47.694Z,91.80
2023-04-06T13:02:51.665Z,92.10
2023-04-06T13:13:01.060Z,91.10
2023-04-06T13:18:05.084Z,90.10
2023-04-06T13:23:08.817Z,88.60
2023-04-06T13:28:14.054Z,86.80
2023-04-06T13:33:18.032Z,87.30
2023-04-06T13:43:28.002Z,88.30
2023-04-06T13:48:31.716Z,88.80
2023-04-06T13:58:40.748Z,87.70
2023-04-06T14:03:48.148Z,87.20
2023-04-06T14:08:52.933Z,85.40
2023-04-06T14:13:58.684Z,84.30
2023-04-06T14:19:02.663Z,84.00
2023-04-06T14:24:06.627Z,84.10
2023-04-06T14:29:11.843Z,83.10
2023-04-06T14:34:16.081Z,83.60
2023-04-06T14:39:19.710Z,83.00
2023-04-06T14:44:24.807Z,82.40
2023-04-06T14:49:28.451Z,81.80
2023-04-06T14:54:32.010Z,81.30
2023-04-06T14:59:39.230Z,80.80
2023-04-06T15:04:43.868Z,80.50
2023-04-06T15:14:52.712Z,78.90
2023-04-06T15:19:56.410Z,79.20
2023-04-06T15:25:00.028Z,78.80
2023-04-06T15:30:05.598Z,78.80
2023-04-06T15:35:13.550Z,79.00
2023-04-06T15:40:17.155Z,78.50
2023-04-06T15:45:22.276Z,77.10
2023-04-06T15:50:25.944Z,77.80
2023-04-06T16:00:34.889Z,76.80
2023-04-06T16:05:48.540Z,77.10
2023-04-06T16:11:02.149Z,76.60
2023-04-06T16:16:08.217Z,75.80
2023-04-06T16:21:16.330Z,75.60
2023-04-06T16:26:20.129Z,75.00
2023-04-06T16:31:26.240Z,74.70
2023-04-06T16:36:32.010Z,74.00
2023-04-06T16:41:35.655Z,74.00
2023-04-06T16:46:44.562Z,74.30
2023-04-06T16:51:49.786Z,74.80
2023-04-06T16:56:53.373Z,74.70
2023-04-06T17:01:58.412Z,73.80
2023-04-06T17:12:06.748Z,81.50
2023-04-06T17:17:11.764Z,74.50
2023-04-06T17:22:20.493Z,83.90
2023-04-06T17:32:31.602Z,75.70
2023-04-06T17:42:39.513Z,75.40
2023-04-06T17:47:44.553Z,75.10
2023-04-06T18:02:59.246Z,74.90
2023-04-06T18:18:12.061Z,75.40
2023-04-06T18:23:15.668Z,85.10
2023-04-06T18:28:19.234Z,85.10
2023-04-06T18:33:24.283Z,75.40
2023-04-06T18:38:27.919Z,85.30
2023-04-06T18:43:31.443Z,85.20
2023-04-06T18:48:36.441Z,75.80
2023-04-06T18:58:44.410Z,86.70
2023-04-06T19:03:49.603Z,76.70
2023-04-06T19:13:58.125Z,88.60
2023-04-06T19:19:03.122Z,78.20
2023-04-06T19:29:10.871Z,89.60
2023-04-06T19:34:17.789Z,89.80
2023-04-06T19:39:21.814Z,78.50
2023-04-06T19:44:25.486Z,90.10
2023-04-06T19:49:30.618Z,90.20
2023-04-06T20:04:44.646Z,79.00
2023-04-06T20:09:48.327Z,79.90
2023-04-06T20:14:52.117Z,80.10
2023-04-06T20:19:56.970Z,80.30
2023-04-06T20:30:05.107Z,80.40
2023-04-06T20:35:11.051Z,81.00
2023-04-06T20:40:14.858Z,81.10
2023-04-06T20:45:19.040Z,81.00
2023-04-06T20:50:25.080Z,80.80
2023-04-06T20:55:28.701Z,80.90
2023-04-06T21:00:32.322Z,89.00
2023-04-06T21:05:37.359Z,90.80
2023-04-06T21:20:50.618Z,91.70
2023-04-06T21:31:00.929Z,92.70
2023-04-06T21:36:09.773Z,93.10
2023-04-06T21:41:13.336Z,93.10
2023-04-06T21:51:23.357Z,82.60
2023-04-06T21:56:27.676Z,82.60
2023-04-06T22:01:31.219Z,92.90
2023-04-06T22:06:38.053Z,92.90
2023-04-06T22:11:41.685Z,93.10
2023-04-06T22:16:45.354Z,93.60
2023-04-06T22:21:50.933Z,93.90
2023-04-06T22:26:54.822Z,94.10
